Time;durP1;ratioP1;P1;durP2;ratioP2;P2;SDS_P1;SDS_P2;PMS_P1;PMS_P2;Temp;Humidity;BMP_temperature;BMP_pressure;BME280_temperature;BME280_humidity;BME280_pressure;Samples;Min_cycle;Max_cycle;Signal;HPM_P1;HPM_P2
2022/03/21 00:02:03;;;;;;;85.50;54.83;;;4.20;99.90;;;;;;5093792;28;20030;-49
2022/03/21 00:04:28;;;;;;;89.40;55.80;;;4.20;99.90;;;;;;5092315;28;20020;-49
2022/03/21 00:06:54;;;;;;;87.20;54.17;;;4.20;99.90;;;;;;5092045;28;20381;-49
2022/03/21 00:09:20;;;;;;;95.05;55.30;;;4.20;99.90;;;;;;5092807;28;20036;-49
2022/03/21 00:11:45;;;;;;;90.75;55.55;;;4.20;99.90;;;;;;5090526;28;20024;-49
2022/03/21 00:14:11;;;;;;;90.50;56.67;;;4.10;99.90;;;;;;5091828;28;20427;-49
2022/03/21 00:16:39;;;;;;;88.43;56.13;;;4.10;99.90;;;;;;5092037;28;20111;-49
2022/03/21 00:19:04;;;;;;;89.82;55.38;;;4.10;99.90;;;;;;5090922;28;20016;-49
2022/03/21 00:21:30;;;;;;;87.88;54.60;;;4.10;99.90;;;;;;5092091;28;20449;-49
2022/03/21 00:23:56;;;;;;;86.00;54.20;;;4.00;99.90;;;;;;5091797;28;20031;-51
2022/03/21 00:26:22;;;;;;;86.70;54.47;;;4.10;99.90;;;;;;5091570;28;20069;-49
2022/03/21 00:28:49;;;;;;;85.00;55.72;;;4.10;99.90;;;;;;5091893;28;20381;-50
2022/03/21 00:31:14;;;;;;;87.32;55.42;;;4.10;99.90;;;;;;5093316;28;20401;-50
2022/03/21 00:33:40;;;;;;;83.32;53.90;;;4.10;99.90;;;;;;5093208;28;20032;-50
2022/03/21 00:36:08;;;;;;;88.68;55.42;;;4.10;99.90;;;;;;5091403;28;20028;-50
2022/03/21 00:38:36;;;;;;;89.75;55.20;;;4.10;99.90;;;;;;5091661;28;20412;-49
2022/03/21 00:41:04;;;;;;;94.07;55.88;;;4.10;99.90;;;;;;5091532;28;20020;-49
2022/03/21 00:43:30;;;;;;;86.32;53.58;;;4.10;99.90;;;;;;5090522;28;20035;-51
2022/03/21 00:45:57;;;;;;;86.75;53.88;;;4.00;99.90;;;;;;5091832;28;20024;-50
2022/03/21 00:48:25;;;;;;;87.65;54.25;;;4.00;99.90;;;;;;5091557;28;20071;-50
2022/03/21 00:50:52;;;;;;;90.10;55.72;;;3.90;99.90;;;;;;5091139;28;20106;-50
2022/03/21 00:53:18;;;;;;;91.28;55.42;;;3.90;99.90;;;;;;5091281;28;20024;-50
2022/03/21 00:55:46;;;;;;;86.40;53.95;;;3.90;99.90;;;;;;5091098;28;20098;-50
2022/03/21 00:58:12;;;;;;;85.05;56.00;;;3.80;99.90;;;;;;5091453;28;20039;-50
2022/03/21 01:00:38;;;;;;;90.10;56.80;;;3.80;99.90;;;;;;5092833;28;20024;-50
2022/03/21 01:03:04;;;;;;;89.05;54.88;;;3.80;99.90;;;;;;5091451;28;20525;-50
2022/03/21 01:05:30;;;;;;;91.13;55.95;;;3.80;99.90;;;;;;5091047;28;20397;-50
2022/03/21 01:07:57;;;;;;;94.57;57.15;;;3.80;99.90;;;;;;5091212;28;20537;-50
2022/03/21 01:10:25;;;;;;;94.75;57.50;;;3.90;99.90;;;;;;5091096;28;20024;-51
2022/03/21 01:12:51;;;;;;;93.78;56.65;;;3.90;99.90;;;;;;5090735;28;20019;-51
2022/03/21 01:15:19;;;;;;;89.88;56.90;;;4.00;99.90;;;;;;5090879;28;20392;-50
2022/03/21 01:17:45;;;;;;;92.88;56.65;;;4.00;99.90;;;;;;5091009;28;20035;-50
2022/03/21 01:20:13;;;;;;;91.32;55.95;;;4.00;99.90;;;;;;5091057;28;20039;-50
2022/03/21 01:22:39;;;;;;;93.40;55.17;;;4.00;99.90;;;;;;5090580;28;20059;-50
2022/03/21 01:25:06;;;;;;;94.97;57.70;;;3.90;99.90;;;;;;5091044;28;20084;-50
2022/03/21 01:27:34;;;;;;;90.82;55.40;;;3.90;99.90;;;;;;5090876;28;20035;-50
2022/03/21 01:30:00;;;;;;;87.75;55.45;;;3.90;99.90;;;;;;5090674;28;20038;-51
2022/03/21 01:32:26;;;;;;;92.60;55.80;;;3.90;99.90;;;;;;5090832;28;20450;-51
2022/03/21 01:34:52;;;;;;;89.40;55.50;;;3.80;99.90;;;;;;5091270;28;20078;-50
2022/03/21 01:37:17;;;;;;;89.22;54.75;;;3.80;99.90;;;;;;5091537;28;20393;-50
2022/03/21 01:39:43;;;;;;;93.50;56.67;;;3.80;99.90;;;;;;5090655;28;20066;-50
2022/03/21 01:42:08;;;;;;;90.00;55.92;;;3.80;99.90;;;;;;5090278;28;20024;-50
2022/03/21 01:44:34;;;;;;;94.63;56.42;;;3.70;99.90;;;;;;5090342;28;20031;-50
2022/03/21 01:47:01;;;;;;;94.85;56.58;;;3.70;99.90;;;;;;5090413;28;20032;-50
2022/03/21 01:49:27;;;;;;;91.53;56.15;;;3.60;99.90;;;;;;5088959;28;20024;-50
2022/03/21 01:51:53;;;;;;;89.97;56.08;;;3.60;99.90;;;;;;5090125;28;20023;-50
2022/03/21 01:57:04;;;;;;;88.57;55.63;;;3.60;99.90;;;;;;5090869;28;20071;-50
2022/03/21 01:59:30;;;;;;;93.88;56.15;;;3.60;99.90;;;;;;5090213;28;20017;-50
2022/03/21 02:01:55;;;;;;;90.68;57.20;;;3.70;99.90;;;;;;5090596;28;20046;-50
2022/03/21 02:04:21;;;;;;;88.45;55.63;;;3.70;99.90;;;;;;5090119;28;20024;-50
2022/03/21 02:06:47;;;;;;;93.95;57.08;;;3.70;99.90;;;;;;5090138;28;20032;-50
2022/03/21 02:09:13;;;;;;;90.32;56.05;;;3.60;99.90;;;;;;5090451;28;20040;-50
2022/03/21 02:11:39;;;;;;;91.10;56.88;;;3.50;99.90;;;;;;5090179;28;20089;-50
2022/03/21 02:14:06;;;;;;;95.18;58.42;;;3.50;99.90;;;;;;5090230;28;20392;-50
2022/03/21 02:16:34;;;;;;;95.70;58.45;;;3.50;99.90;;;;;;5089940;28;20020;-50
2022/03/21 02:19:04;;;;;;;93.93;54.72;;;3.40;99.90;;;;;;5090165;28;20448;-50
2022/03/21 02:21:39;;;;;;;93.30;55.60;;;3.50;99.90;;;;;;5090228;28;20443;-50
2022/03/21 02:24:10;;;;;;;92.60;57.42;;;3.50;99.90;;;;;;5090116;28;20566;-50
2022/03/21 02:26:36;;;;;;;92.90;58.10;;;3.50;99.90;;;;;;5089807;28;20103;-50
2022/03/21 02:29:03;;;;;;;95.13;58.78;;;3.40;99.90;;;;;;5090343;28;20099;-51
2022/03/21 02:31:32;;;;;;;91.25;57.00;;;3.40;99.90;;;;;;5089881;28;20036;-51
2022/03/21 02:33:58;;;;;;;92.47;57.55;;;3.40;99.90;;;;;;5089696;28;20016;-51
2022/03/21 02:36:26;;;;;;;91.32;57.17;;;3.40;99.90;;;;;;5089683;28;20028;-50
2022/03/21 02:38:54;;;;;;;93.93;55.83;;;3.40;99.90;;;;;;5090047;28;20437;-50
2022/03/21 02:41:20;;;;;;;91.07;57.90;;;3.50;99.90;;;;;;5089679;28;20473;-50
2022/03/21 02:43:58;;;;;;;92.85;57.05;;;3.60;99.90;;;;;;5089944;28;20052;-50
2022/03/21 02:46:24;;;;;;;87.93;54.78;;;3.50;99.90;;;;;;5089653;28;20459;-50
2022/03/21 02:48:55;;;;;;;89.80;54.38;;;3.50;99.90;;;;;;5089855;28;20020;-50
2022/03/21 02:51:25;;;;;;;87.90;53.33;;;3.50;99.90;;;;;;5089633;28;20024;-50
2022/03/21 02:53:51;;;;;;;86.55;53.00;;;3.50;99.90;;;;;;5090166;28;20469;-50
2022/03/21 02:56:22;;;;;;;89.05;53.40;;;3.40;99.90;;;;;;5090457;28;20059;-51
2022/03/21 02:58:49;;;;;;;86.43;54.03;;;3.40;99.90;;;;;;5089834;28;20035;-51
2022/03/21 03:01:17;;;;;;;89.90;52.92;;;3.40;99.90;;;;;;5089673;28;20028;-50
2022/03/21 03:03:44;;;;;;;88.55;54.20;;;3.40;99.90;;;;;;5089896;28;20442;-50
2022/03/21 03:06:10;;;;;;;96.97;58.10;;;3.50;99.90;;;;;;5089655;28;20020;-50
2022/03/21 03:08:39;;;;;;;87.85;54.33;;;3.40;99.90;;;;;;5092886;28;20036;-50
2022/03/21 03:11:05;;;;;;;88.75;54.40;;;3.40;99.90;;;;;;5093098;28;20016;-51
2022/03/21 03:13:31;;;;;;;86.05;52.33;;;3.30;99.90;;;;;;5092635;28;20031;-51
2022/03/21 03:15:57;;;;;;;85.68;51.75;;;3.10;99.90;;;;;;5093516;28;20020;-51
2022/03/21 03:18:22;;;;;;;83.72;51.67;;;3.10;99.90;;;;;;5093569;28;20362;-50
2022/03/21 03:20:54;;;;;;;80.10;48.78;;;3.30;99.90;;;;;;5093057;28;20028;-50
2022/03/21 03:23:25;;;;;;;82.35;49.25;;;3.40;99.90;;;;;;5093223;28;20020;-50
2022/03/21 03:26:02;;;;;;;77.43;48.40;;;3.50;99.90;;;;;;5092964;28;20052;-50
2022/03/21 03:28:29;;;;;;;82.57;49.17;;;3.60;99.90;;;;;;5092943;28;20040;-50
2022/03/21 03:30:56;;;;;;;82.15;50.17;;;3.50;99.90;;;;;;5091482;28;20335;-50
2022/03/21 03:33:22;;;;;;;80.47;49.70;;;3.50;99.90;;;;;;5092703;28;20080;-50
2022/03/21 03:35:48;;;;;;;79.18;50.10;;;3.40;99.90;;;;;;5092717;28;20036;-50
2022/03/21 03:38:16;;;;;;;81.20;50.20;;;3.40;99.90;;;;;;5092904;28;20705;-50
2022/03/21 03:40:43;;;;;;;85.95;49.60;;;3.30;99.90;;;;;;5093184;28;20384;-50
2022/03/21 03:43:09;;;;;;;82.97;50.22;;;3.30;99.90;;;;;;5092936;28;20024;-50
2022/03/21 03:45:35;;;;;;;81.38;48.97;;;3.40;99.90;;;;;;5093320;28;20042;-50
2022/03/21 03:48:02;;;;;;;77.22;47.22;;;3.50;99.90;;;;;;5092855;28;20054;-50
2022/03/21 03:50:28;;;;;;;78.53;48.28;;;3.40;99.90;;;;;;5092127;28;20024;-50
2022/03/21 03:52:53;;;;;;;76.65;46.90;;;3.40;99.90;;;;;;5092192;28;20032;-50
2022/03/21 03:55:19;;;;;;;82.85;49.22;;;3.30;99.90;;;;;;5092338;28;20027;-50
2022/03/21 03:57:46;;;;;;;82.07;48.38;;;3.30;99.90;;;;;;5092514;28;20042;-50
2022/03/21 04:00:14;;;;;;;79.82;48.45;;;3.30;99.90;;;;;;5092334;28;20222;-50
2022/03/21 04:05:24;;;;;;;78.85;48.65;;;3.10;99.90;;;;;;5092750;28;20030;-50
2022/03/21 04:07:50;;;;;;;81.38;49.60;;;3.20;99.90;;;;;;5092222;28;20040;-51
2022/03/21 04:10:17;;;;;;;77.45;48.95;;;3.10;99.90;;;;;;5092068;28;20044;-51
2022/03/21 04:12:47;;;;;;;81.15;49.50;;;3.10;99.90;;;;;;5092190;28;20085;-51
2022/03/21 04:15:13;;;;;;;80.40;47.58;;;3.20;99.90;;;;;;5090828;28;20017;-51
2022/03/21 04:17:38;;;;;;;75.78;46.55;;;3.30;99.90;;;;;;5092448;28;20039;-51
2022/03/21 04:20:05;;;;;;;77.97;46.40;;;3.20;99.90;;;;;;5092180;28;20051;-51
2022/03/21 04:22:31;;;;;;;77.97;44.83;;;3.20;99.90;;;;;;5092896;28;20027;-50
2022/03/21 04:24:57;;;;;;;71.97;43.97;;;3.20;99.90;;;;;;5092080;28;20028;-50
2022/03/21 04:27:22;;;;;;;71.13;42.67;;;3.30;99.90;;;;;;5092578;28;20021;-50
2022/03/21 04:29:48;;;;;;;75.30;43.17;;;3.30;99.90;;;;;;5091601;28;20035;-50
2022/03/21 04:32:13;;;;;;;67.22;39.83;;;3.20;99.90;;;;;;5091581;28;20090;-50
2022/03/21 04:34:39;;;;;;;70.90;42.25;;;3.20;99.90;;;;;;5091869;28;20383;-50
2022/03/21 04:37:05;;;;;;;68.93;42.15;;;3.30;99.90;;;;;;5092160;28;20409;-50
2022/03/21 04:39:30;;;;;;;69.45;41.60;;;3.40;99.90;;;;;;5092150;28;20027;-50
2022/03/21 04:41:59;;;;;;;66.95;40.45;;;3.30;99.90;;;;;;5092493;28;20028;-50
2022/03/21 04:44:24;;;;;;;70.32;41.05;;;3.40;99.90;;;;;;5092825;28;20024;-50
2022/03/21 04:46:50;;;;;;;67.05;39.08;;;3.40;99.90;;;;;;5092816;28;20038;-50
2022/03/21 04:49:16;;;;;;;66.55;41.15;;;3.30;99.90;;;;;;5092397;28;20031;-50
2022/03/21 04:51:42;;;;;;;68.88;39.65;;;3.30;99.90;;;;;;5092486;28;20031;-50
2022/03/21 04:54:08;;;;;;;66.65;40.10;;;3.30;99.90;;;;;;5091396;28;20032;-50
2022/03/21 04:56:34;;;;;;;65.43;38.78;;;3.40;99.90;;;;;;5091869;28;20120;-50
2022/03/21 04:58:59;;;;;;;64.47;39.75;;;3.30;99.90;;;;;;5091696;28;20417;-51
2022/03/21 05:01:25;;;;;;;69.28;40.63;;;3.20;99.90;;;;;;5091873;28;20473;-50
2022/03/21 05:03:51;;;;;;;63.80;39.08;;;3.20;99.90;;;;;;5092937;28;20499;-50
2022/03/21 05:06:17;;;;;;;69.57;39.80;;;3.10;99.90;;;;;;5091563;28;20075;-50
2022/03/21 05:08:43;;;;;;;69.90;39.78;;;3.30;99.90;;;;;;5090122;28;20047;-50
2022/03/21 05:11:09;;;;;;;68.90;40.83;;;3.40;99.90;;;;;;5089568;28;20085;-50
2022/03/21 05:13:36;;;;;;;67.32;40.72;;;3.30;99.90;;;;;;5090724;28;20095;-50
2022/03/21 05:16:05;;;;;;;68.43;38.97;;;3.10;99.90;;;;;;5091134;28;20510;-50
2022/03/21 05:18:34;;;;;;;68.95;39.53;;;3.00;99.90;;;;;;5090989;28;20108;-50
2022/03/21 05:21:00;;;;;;;67.18;40.30;;;2.90;99.90;;;;;;5091118;28;20028;-50
2022/03/21 05:31:38;;;;;;;59.08;36.15;;;2.70;99.90;;;;;;5091052;28;20113;-50
2022/03/21 05:36:47;;;;;;;70.40;38.90;;;2.60;99.90;;;;;;5091882;28;20050;-50
2022/03/21 05:39:13;;;;;;;69.40;40.20;;;2.60;99.90;;;;;;5090768;28;20027;-50
2022/03/21 05:41:39;;;;;;;70.10;39.95;;;2.60;99.90;;;;;;5090506;28;20028;-50
2022/03/21 05:44:04;;;;;;;67.50;39.35;;;2.70;99.90;;;;;;5090442;28;20020;-50
2022/03/21 05:46:30;;;;;;;69.53;40.97;;;2.80;99.90;;;;;;5090489;28;20093;-50
2022/03/21 05:49:02;;;;;;;71.20;39.83;;;2.80;99.90;;;;;;5090982;28;20389;-50
2022/03/21 05:51:30;;;;;;;65.65;39.45;;;2.90;99.90;;;;;;5090731;28;20024;-51
2022/03/21 05:53:58;;;;;;;72.53;40.63;;;2.90;99.90;;;;;;5089144;28;20085;-51
2022/03/21 05:56:25;;;;;;;70.25;40.58;;;2.90;99.90;;;;;;5090635;28;20046;-51
2022/03/21 05:58:53;;;;;;;67.57;39.40;;;2.90;99.90;;;;;;5090669;28;20085;-51
2022/03/21 06:01:22;;;;;;;69.18;40.00;;;2.90;99.90;;;;;;5091441;28;20032;-51
2022/03/21 06:03:52;;;;;;;64.40;38.47;;;2.90;99.90;;;;;;5091644;28;20028;-51
2022/03/21 06:06:19;;;;;;;72.57;39.67;;;3.10;99.90;;;;;;5090317;28;20031;-51
2022/03/21 06:08:45;;;;;;;69.18;38.10;;;3.20;99.90;;;;;;5091033;28;20044;-51
2022/03/21 06:11:12;;;;;;;64.60;37.50;;;3.30;99.90;;;;;;5090883;28;20016;-51
2022/03/21 06:13:41;;;;;;;62.40;35.38;;;3.40;99.90;;;;;;5090001;28;20028;-50
2022/03/21 06:16:07;;;;;;;66.68;35.75;;;3.40;99.90;;;;;;5090290;28;20103;-50
2022/03/21 06:18:35;;;;;;;67.50;35.55;;;3.40;99.90;;;;;;5090088;28;20107;-50
2022/03/21 06:21:01;;;;;;;70.43;37.00;;;3.50;99.90;;;;;;5090550;28;20482;-50
2022/03/21 06:23:27;;;;;;;72.78;34.85;;;3.40;99.90;;;;;;5090222;28;20054;-50
2022/03/21 06:25:53;;;;;;;66.13;35.03;;;3.30;99.90;;;;;;5090301;28;20024;-50
2022/03/21 06:28:21;;;;;;;63.10;34.42;;;3.30;99.90;;;;;;5090765;28;20366;-51
2022/03/21 06:30:46;;;;;;;65.57;36.25;;;3.30;99.90;;;;;;5091265;28;20047;-51
2022/03/21 06:33:12;;;;;;;63.78;35.85;;;3.30;99.90;;;;;;5091051;28;20024;-51
2022/03/21 06:35:38;;;;;;;58.40;35.15;;;3.50;99.90;;;;;;5090535;28;20032;-51
2022/03/21 06:38:03;;;;;;;54.80;34.55;;;3.60;99.90;;;;;;5090615;28;20460;-51
2022/03/21 06:40:30;;;;;;;60.78;33.25;;;3.80;99.90;;;;;;5089922;28;20089;-51
2022/03/21 06:42:56;;;;;;;55.75;33.85;;;3.80;99.90;;;;;;5092692;28;20035;-51
2022/03/21 06:45:22;;;;;;;58.20;33.20;;;3.80;99.90;;;;;;5093757;28;20031;-51
2022/03/21 06:47:47;;;;;;;56.67;34.65;;;3.80;99.90;;;;;;5092577;28;20020;-51
2022/03/21 06:50:13;;;;;;;61.45;36.78;;;3.90;99.90;;;;;;5093931;28;20542;-51
2022/03/21 06:52:39;;;;;;;57.80;36.15;;;4.10;99.90;;;;;;5093688;28;20023;-51
2022/03/21 06:55:09;;;;;;;56.35;34.53;;;4.20;99.90;;;;;;5092443;28;20028;-51
2022/03/21 06:57:35;;;;;;;54.25;31.55;;;4.40;99.90;;;;;;5090809;28;20081;-51
2022/03/21 07:00:02;;;;;;;51.53;31.48;;;4.50;99.90;;;;;;5093445;28;20485;-51
2022/03/21 07:02:28;;;;;;;51.90;33.13;;;4.70;99.90;;;;;;5089843;28;20030;-51
2022/03/21 07:04:54;;;;;;;47.22;30.42;;;4.90;99.90;;;;;;5072741;28;20032;-51
2022/03/21 07:07:23;;;;;;;49.65;30.13;;;5.10;99.90;;;;;;5076085;28;20234;-51
2022/03/21 07:09:49;;;;;;;47.15;28.83;;;5.20;99.90;;;;;;5072044;28;20067;-51
2022/03/21 07:12:14;;;;;;;44.55;28.50;;;5.30;99.90;;;;;;5072267;28;20459;-51
2022/03/21 07:14:40;;;;;;;43.53;27.70;;;5.40;99.90;;;;;;5077297;28;20029;-51
2022/03/21 07:17:06;;;;;;;48.10;28.23;;;5.40;99.90;;;;;;5075474;28;20036;-51
2022/03/21 07:19:32;;;;;;;44.25;27.58;;;5.50;99.90;;;;;;5068305;28;20060;-51
2022/03/21 07:21:57;;;;;;;45.47;28.95;;;5.50;99.90;;;;;;5071524;28;20067;-51
2022/03/21 07:24:23;;;;;;;53.35;28.80;;;5.50;99.90;;;;;;5079179;28;21321;-51
2022/03/21 07:26:48;;;;;;;42.75;26.23;;;5.70;99.90;;;;;;5063971;28;20494;-51
2022/03/21 07:29:14;;;;;;;46.03;27.88;;;5.80;99.90;;;;;;5070335;28;20250;-51
2022/03/21 07:31:40;;;;;;;43.58;25.63;;;6.00;99.90;;;;;;5072706;28;20030;-52
2022/03/21 07:34:07;;;;;;;41.75;26.88;;;6.30;99.90;;;;;;5071361;28;20020;-51
2022/03/21 07:36:33;;;;;;;44.38;24.90;;;6.50;99.90;;;;;;5072775;28;20082;-51
2022/03/21 07:38:59;;;;;;;44.20;27.83;;;6.60;99.90;;;;;;5074504;28;20028;-51
2022/03/21 07:41:27;;;;;;;40.00;27.90;;;6.90;99.90;;;;;;5078067;28;20029;-51
2022/03/21 07:43:54;;;;;;;46.28;28.98;;;7.10;99.90;;;;;;5080208;28;20025;-52
2022/03/21 07:49:04;;;;;;;41.60;25.27;;;7.50;99.90;;;;;;5066183;28;20110;-52
2022/03/21 07:51:30;;;;;;;40.35;27.67;;;7.50;99.90;;;;;;5075310;28;20413;-51
2022/03/21 07:53:55;;;;;;;38.65;26.20;;;7.60;99.90;;;;;;5075434;28;20036;-51
2022/03/21 07:56:21;;;;;;;41.38;27.48;;;7.60;99.90;;;;;;5067816;28;20020;-51
2022/03/21 07:58:47;;;;;;;39.47;26.20;;;7.60;99.90;;;;;;5070886;28;20180;-51
2022/03/21 08:01:13;;;;;;;43.10;27.83;;;7.50;99.90;;;;;;5078159;28;20120;-51
2022/03/21 08:03:38;;;;;;;40.25;26.90;;;7.90;99.90;;;;;;5071235;28;20522;-51
2022/03/21 08:06:08;;;;;;;40.20;27.63;;;8.90;99.90;;;;;;5073136;28;20085;-51
2022/03/21 08:08:34;;;;;;;39.50;25.77;;;9.90;99.90;;;;;;5068464;28;20497;-52
2022/03/21 08:10:59;;;;;;;36.75;26.25;;;10.50;99.90;;;;;;5070171;28;20039;-52
2022/03/21 08:13:26;;;;;;;37.75;26.55;;;11.30;99.90;;;;;;5068656;28;20028;-53
2022/03/21 08:15:51;;;;;;;33.92;24.65;;;11.70;99.90;;;;;;5069905;28;20120;-52
2022/03/21 08:18:17;;;;;;;30.08;21.73;;;12.20;99.90;;;;;;5069692;28;20127;-52
2022/03/21 08:20:43;;;;;;;30.92;20.65;;;12.00;99.90;;;;;;5067219;28;20033;-52
2022/03/21 08:23:12;;;;;;;27.27;20.52;;;12.40;99.90;;;;;;5068621;28;20106;-52
2022/03/21 08:25:39;;;;;;;32.30;20.77;;;12.60;99.80;;;;;;5069611;28;20025;-52
2022/03/21 08:28:06;;;;;;;32.20;20.75;;;12.90;99.90;;;;;;5077304;28;20024;-52
2022/03/21 08:30:34;;;;;;;29.35;20.83;;;13.60;98.80;;;;;;5073044;28;20028;-52
2022/03/21 08:33:01;;;;;;;29.13;20.80;;;14.10;97.40;;;;;;5067262;28;20801;-52
2022/03/21 08:35:27;;;;;;;27.52;20.48;;;13.70;98.10;;;;;;5072763;28;20012;-52
2022/03/21 08:37:53;;;;;;;30.95;21.85;;;14.10;97.20;;;;;;5077878;28;20038;-52
2022/03/21 08:40:18;;;;;;;32.67;20.70;;;13.90;98.20;;;;;;5076132;28;20032;-52
2022/03/21 08:42:45;;;;;;;26.27;21.30;;;14.20;97.60;;;;;;5070538;28;20032;-53
2022/03/21 08:45:12;;;;;;;31.80;21.23;;;13.90;98.20;;;;;;5073127;28;20039;-53
2022/03/21 08:47:38;;;;;;;31.38;21.10;;;14.40;97.30;;;;;;5060902;28;20177;-52
2022/03/21 08:50:05;;;;;;;31.40;21.90;;;14.60;97.50;;;;;;5067545;28;20039;-52
2022/03/21 08:52:31;;;;;;;30.98;21.58;;;14.70;96.90;;;;;;5068311;28;20028;-53
2022/03/21 08:54:56;;;;;;;30.65;21.00;;;13.90;97.90;;;;;;5070245;28;20028;-53
2022/03/21 08:57:22;;;;;;;31.08;21.20;;;13.90;98.80;;;;;;5063897;28;20044;-53
2022/03/21 08:59:48;;;;;;;33.95;20.80;;;14.30;98.80;;;;;;5067130;28;20867;-53
2022/03/21 09:02:15;;;;;;;27.77;19.52;;;15.50;96.60;;;;;;5069572;28;20365;-53
2022/03/21 09:04:41;;;;;;;31.42;20.65;;;16.60;94.10;;;;;;5067436;28;20501;-53
2022/03/21 09:07:08;;;;;;;27.50;20.65;;;16.40;94.30;;;;;;5070545;28;20040;-53
2022/03/21 09:09:34;;;;;;;32.15;20.67;;;15.90;94.50;;;;;;5060433;28;20029;-53
2022/03/21 09:12:00;;;;;;;30.30;20.27;;;16.70;94.50;;;;;;5066289;28;20020;-53
2022/03/21 09:14:25;;;;;;;26.63;18.85;;;16.70;93.60;;;;;;5062327;28;20097;-53
2022/03/21 09:16:52;;;;;;;27.00;17.35;;;17.00;93.30;;;;;;5062886;28;20869;-53
2022/03/21 09:19:19;;;;;;;27.90;18.88;;;17.10;93.10;;;;;;5068728;28;20025;-53
2022/03/21 09:21:45;;;;;;;25.77;17.88;;;16.40;94.70;;;;;;5066852;28;20044;-53
2022/03/21 09:24:11;;;;;;;24.27;17.80;;;17.00;93.80;;;;;;5068248;28;20055;-53
2022/03/21 09:26:37;;;;;;;24.88;17.42;;;15.90;94.70;;;;;;5064813;28;20082;-53
2022/03/21 09:29:04;;;;;;;25.35;17.73;;;16.10;95.20;;;;;;5064671;28;20024;-53
2022/03/21 09:31:35;;;;;;;24.88;18.45;;;16.60;93.60;;;;;;5062247;28;20033;-53
2022/03/21 09:34:02;;;;;;;24.23;17.65;;;16.80;93.60;;;;;;5066520;28;21095;-53
2022/03/21 09:36:27;;;;;;;24.27;18.08;;;16.90;93.70;;;;;;5058435;28;20458;-53
2022/03/21 09:38:53;;;;;;;27.20;18.73;;;16.40;94.60;;;;;;5062101;28;20036;-53
2022/03/21 09:41:23;;;;;;;28.10;18.95;;;16.00;95.10;;;;;;5060809;28;20029;-53
2022/03/21 09:43:54;;;;;;;24.38;18.15;;;16.10;95.10;;;;;;5064145;28;20042;-53
2022/03/21 09:46:20;;;;;;;26.90;18.92;;;15.90;95.60;;;;;;5062061;28;20037;-53
2022/03/21 09:48:48;;;;;;;25.85;18.83;;;16.00;95.50;;;;;;5062365;28;20031;-54
2022/03/21 09:51:16;;;;;;;24.83;19.05;;;15.60;96.60;;;;;;5065621;28;20424;-53
2022/03/21 09:53:42;;;;;;;24.27;18.30;;;16.10;96.10;;;;;;5064720;28;20036;-53
2022/03/21 09:56:08;;;;;;;25.30;18.50;;;16.30;95.20;;;;;;5060462;28;20034;-53
2022/03/21 09:58:34;;;;;;;23.05;17.33;;;16.50;94.90;;;;;;5066063;28;20023;-53
2022/03/21 10:01:00;;;;;;;28.00;19.27;;;16.60;95.30;;;;;;5067749;28;20028;-54
2022/03/21 10:03:26;;;;;;;26.63;19.50;;;16.30;95.40;;;;;;5063808;28;20020;-54
2022/03/21 10:05:51;;;;;;;29.42;19.77;;;16.00;95.90;;;;;;5070384;28;20023;-53
2022/03/21 10:08:20;;;;;;;24.13;19.60;;;16.30;96.10;;;;;;5065154;28;20539;-53
2022/03/21 10:10:58;;;;;;;27.05;19.58;;;16.70;95.80;;;;;;5065652;28;20032;-53
2022/03/21 10:13:27;;;;;;;28.80;19.38;;;16.60;96.30;;;;;;5062874;28;20078;-53
2022/03/21 10:16:18;;;;;;;26.77;17.92;;;17.80;94.60;;;;;;5062597;28;20818;-54
2022/03/21 10:18:53;;;;;;;28.23;18.40;;;18.20;93.00;;;;;;5069275;28;20084;-53
2022/03/21 10:21:20;;;;;;;24.38;19.63;;;17.70;94.70;;;;;;5068997;28;20086;-53
2022/03/21 10:24:06;;;;;;;27.35;18.30;;;18.30;93.80;;;;;;5066374;28;20123;-55
2022/03/21 10:26:42;;;;;;;25.73;18.85;;;18.80;92.80;;;;;;5067997;28;20293;-54
2022/03/21 10:29:10;;;;;;;24.75;17.88;;;19.30;92.20;;;;;;5067410;28;20107;-59
2022/03/21 10:31:46;;;;;;;23.45;18.20;;;19.80;90.70;;;;;;5080068;28;20115;-65
2022/03/21 10:34:18;;;;;;;26.35;18.17;;;20.50;90.00;;;;;;5069026;28;20082;-50
2022/03/21 10:36:59;;;;;;;24.60;17.53;;;20.30;88.60;;;;;;5072615;28;20122;-60
2022/03/21 10:39:25;;;;;;;24.83;18.35;;;20.00;89.80;;;;;;5066342;28;20270;-57
2022/03/21 10:41:56;;;;;;;22.45;18.65;;;20.20;89.90;;;;;;5068158;28;20020;-56
2022/03/21 10:44:22;;;;;;;26.02;18.75;;;20.00;90.40;;;;;;5067089;28;20409;-54
2022/03/21 10:46:54;;;;;;;22.42;18.25;;;19.20;91.10;;;;;;5067523;28;20020;-57
2022/03/21 10:49:38;;;;;;;24.25;17.33;;;19.60;90.70;;;;;;5071306;28;20028;-57
2022/03/21 10:52:05;;;;;;;28.27;18.45;;;19.60;90.90;;;;;;5073262;28;20024;-57
2022/03/21 10:54:37;;;;;;;25.90;18.73;;;19.90;90.60;;;;;;5071971;28;20027;-57
2022/03/21 10:57:04;;;;;;;27.00;18.25;;;20.20;90.10;;;;;;5068330;28;20024;-57
2022/03/21 10:59:29;;;;;;;24.45;18.27;;;20.50;88.50;;;;;;5071998;28;20048;-57
2022/03/21 11:02:15;;;;;;;23.20;17.70;;;21.20;87.10;;;;;;5072379;28;20497;-57
2022/03/21 11:04:43;;;;;;;25.70;18.27;;;20.90;87.60;;;;;;5069106;28;20024;-58
2022/03/21 11:07:11;;;;;;;26.85;18.63;;;20.40;88.80;;;;;;5068657;28;20581;-58
2022/03/21 11:09:39;;;;;;;26.80;18.23;;;19.40;91.00;;;;;;5068257;28;20607;-58
2022/03/21 11:12:07;;;;;;;22.85;17.48;;;19.70;90.60;;;;;;5070241;28;20050;-58
2022/03/21 11:14:38;;;;;;;26.52;18.05;;;19.80;91.30;;;;;;5068820;28;20163;-57
2022/03/21 11:17:05;;;;;;;27.08;17.77;;;20.40;90.10;;;;;;5066400;28;20521;-58
2022/03/21 11:19:32;;;;;;;22.60;17.52;;;20.90;87.40;;;;;;5068721;28;20032;-58
2022/03/21 11:22:00;;;;;;;23.67;17.35;;;20.70;88.80;;;;;;5063413;28;20626;-59
2022/03/21 11:24:27;;;;;;;24.52;17.50;;;20.20;90.40;;;;;;5063201;28;20036;-58
2022/03/21 11:27:09;;;;;;;24.60;17.40;;;20.50;90.40;;;;;;5063290;28;20383;-58
2022/03/21 11:29:46;;;;;;;26.30;18.55;;;20.10;90.50;;;;;;5069993;28;20020;-58
2022/03/21 11:32:12;;;;;;;27.85;18.52;;;20.00;91.30;;;;;;5067015;28;20024;-58
2022/03/21 11:34:57;;;;;;;26.73;17.40;;;20.60;90.10;;;;;;5069992;28;20949;-58
2022/03/21 11:37:25;;;;;;;28.50;18.27;;;20.00;90.90;;;;;;5070437;28;20032;-58
2022/03/21 11:40:23;;;;;;;24.52;18.67;;;19.60;91.70;;;;;;5073617;28;20078;-58
2022/03/21 11:42:49;;;;;;;27.92;17.90;;;19.70;91.80;;;;;;5071717;28;20040;-58
2022/03/21 11:45:27;;;;;;;28.30;17.30;;;20.40;91.30;;;;;;5069297;28;20478;-58
2022/03/21 11:48:33;;;;;;;26.58;16.63;;;21.60;88.20;;;;;;5070257;28;20043;-58
2022/03/21 11:50:59;;;;;;;27.35;17.45;;;21.30;88.10;;;;;;5067538;28;20024;-58
2022/03/21 11:53:31;;;;;;;21.48;16.80;;;21.20;89.30;;;;;;5073432;28;20084;-58
2022/03/21 11:55:57;;;;;;;28.38;17.15;;;21.90;88.20;;;;;;5074138;28;20024;-58
2022/03/21 11:58:22;;;;;;;25.42;17.73;;;21.40;87.30;;;;;;5071825;28;20113;-58
2022/03/21 12:01:08;;;;;;;23.10;15.98;;;21.60;87.40;;;;;;5072015;28;20028;-58
2022/03/21 12:03:38;;;;;;;23.05;15.77;;;21.80;86.50;;;;;;5076962;28;20431;-58
2022/03/21 12:06:23;;;;;;;25.30;16.25;;;22.20;85.20;;;;;;5070473;28;20074;-58
2022/03/21 12:08:58;;;;;;;24.48;16.25;;;22.50;84.20;;;;;;5066128;28;20167;-58
2022/03/21 12:11:39;;;;;;;26.33;15.52;;;22.40;83.60;;;;;;5071405;28;20075;-58
2022/03/21 12:14:23;;;;;;;22.38;15.05;;;21.60;84.60;;;;;;5066614;28;20047;-58
2022/03/21 12:17:12;;;;;;;19.60;15.55;;;21.80;85.40;;;;;;5063028;28;20501;-58
2022/03/21 12:19:58;;;;;;;20.25;15.88;;;21.90;85.30;;;;;;5060276;28;20081;-59
2022/03/21 12:22:29;;;;;;;23.58;15.75;;;21.60;84.50;;;;;;5066922;28;20032;-58
2022/03/21 12:25:00;;;;;;;21.17;14.75;;;21.70;86.00;;;;;;5063926;28;21058;-59
2022/03/21 12:27:33;;;;;;;21.17;15.73;;;22.50;83.50;;;;;;5065463;28;20036;-59
2022/03/21 12:30:27;;;;;;;22.90;16.40;;;22.60;82.10;;;;;;5070496;28;20539;-58
2022/03/21 12:33:23;;;;;;;21.40;16.27;;;21.70;83.80;;;;;;5065008;28;20444;-59
2022/03/21 12:35:48;;;;;;;22.95;16.15;;;22.40;83.00;;;;;;5063335;28;20383;-58
2022/03/21 12:38:16;;;;;;;21.50;14.52;;;22.50;82.20;;;;;;5068932;28;20081;-59
2022/03/21 12:40:51;;;;;;;18.95;14.10;;;23.20;81.60;;;;;;5065789;28;20489;-58
2022/03/21 12:43:18;;;;;;;19.27;13.23;;;22.90;80.20;;;;;;5069288;28;20043;-58
2022/03/21 12:45:45;;;;;;;18.95;13.95;;;23.40;79.50;;;;;;5067074;28;20036;-58
2022/03/21 12:48:13;;;;;;;18.88;14.38;;;23.00;79.20;;;;;;5071734;28;20028;-58
2022/03/21 12:50:39;;;;;;;21.80;14.13;;;22.30;82.00;;;;;;5079970;28;20082;-58
2022/03/21 12:53:07;;;;;;;20.52;14.88;;;21.90;83.10;;;;;;5063976;28;20032;-58
2022/03/21 12:55:34;;;;;;;21.67;14.43;;;22.70;81.80;;;;;;5062056;28;20050;-58
2022/03/21 12:58:02;;;;;;;17.27;13.20;;;23.00;80.10;;;;;;5060988;28;20043;-59